sensor_id;sensor_type;location;lat;lon;timestamp;pressure;altitude;pressure_sealevel;temperature;humidity
70304;BME280;57712;48.752;11.348;2022-08-24T00:02:00;97741.34;;;15.38;81.69
70304;BME280;57712;48.752;11.348;2022-08-24T00:04:27;97736.94;;;15.28;82.10
70304;BME280;57712;48.752;11.348;2022-08-24T00:06:58;97732.66;;;15.27;81.95
70304;BME280;57712;48.752;11.348;2022-08-24T00:09:24;97737.53;;;15.23;82.72
70304;BME280;57712;48.752;11.348;2022-08-24T00:11:51;97738.50;;;15.29;81.67
70304;BME280;57712;48.752;11.348;2022-08-24T00:14:18;97737.16;;;15.21;82.31
70304;BME280;57712;48.752;11.348;2022-08-24T00:16:45;97734.97;;;15.16;82.51
70304;BME280;57712;48.752;11.348;2022-08-24T00:19:12;97728.81;;;15.12;83.55
70304;BME280;57712;48.752;11.348;2022-08-24T00:21:38;97733.97;;;15.10;83.70
70304;BME280;57712;48.752;11.348;2022-08-24T00:24:05;97728.91;;;15.08;84.42
70304;BME280;57712;48.752;11.348;2022-08-24T00:26:32;97732.13;;;15.07;83.48
70304;BME280;57712;48.752;11.348;2022-08-24T00:29:00;97734.69;;;15.01;83.95
70304;BME280;57712;48.752;11.348;2022-08-24T00:31:32;97735.00;;;15.03;83.78
70304;BME280;57712;48.752;11.348;2022-08-24T00:33:59;97736.00;;;14.96;84.31
70304;BME280;57712;48.752;11.348;2022-08-24T00:36:26;97734.44;;;14.95;84.23
70304;BME280;57712;48.752;11.348;2022-08-24T00:38:52;97733.78;;;14.91;84.52
70304;BME280;57712;48.752;11.348;2022-08-24T00:41:19;97733.78;;;14.91;85.29
70304;BME280;57712;48.752;11.348;2022-08-24T00:43:57;97739.72;;;14.90;84.76
70304;BME280;57712;48.752;11.348;2022-08-24T00:46:29;97740.41;;;14.94;84.08
70304;BME280;57712;48.752;11.348;2022-08-24T00:49:07;97738.31;;;14.85;85.43
70304;BME280;57712;48.752;11.348;2022-08-24T00:51:46;97729.38;;;14.81;85.18
70304;BME280;57712;48.752;11.348;2022-08-24T00:54:16;97735.22;;;14.83;85.67
70304;BME280;57712;48.752;11.348;2022-08-24T00:56:54;97731.47;;;14.77;86.13
70304;BME280;57712;48.752;11.348;2022-08-24T00:59:31;97737.66;;;14.81;85.90
70304;BME280;57712;48.752;11.348;2022-08-24T01:02:04;97739.41;;;14.88;95.00
70304;BME280;57712;48.752;11.348;2022-08-24T01:04:56;97738.09;;;14.92;96.92
70304;BME280;57712;48.752;11.348;2022-08-24T01:07:26;97738.63;;;14.87;96.43
70304;BME280;57712;48.752;11.348;2022-08-24T01:09:56;97736.97;;;14.90;97.00
70304;BME280;57712;48.752;11.348;2022-08-24T01:12:23;97741.41;;;14.87;97.94
70304;BME280;57712;48.752;11.348;2022-08-24T01:14:52;97740.63;;;14.87;95.57
70304;BME280;57712;48.752;11.348;2022-08-24T01:17:21;97739.19;;;14.82;97.73
70304;BME280;57712;48.752;11.348;2022-08-24T01:20:07;97739.19;;;14.82;97.48
70304;BME280;57712;48.752;11.348;2022-08-24T01:22:41;97752.66;;;14.80;97.59
70304;BME280;57712;48.752;11.348;2022-08-24T01:25:13;97741.84;;;14.73;93.24
70304;BME280;57712;48.752;11.348;2022-08-24T01:27:40;97750.31;;;14.66;90.57
70304;BME280;57712;48.752;11.348;2022-08-24T01:30:11;97732.56;;;14.67;89.57
70304;BME280;57712;48.752;11.348;2022-08-24T01:32:40;97734.78;;;14.59;89.14
70304;BME280;57712;48.752;11.348;2022-08-24T01:35:07;97735.19;;;14.58;89.35
70304;BME280;57712;48.752;11.348;2022-08-24T01:37:34;97732.22;;;14.52;89.89
70304;BME280;57712;48.752;11.348;2022-08-24T01:40:04;97731.47;;;14.52;90.43
70304;BME280;57712;48.752;11.348;2022-08-24T01:42:32;97731.53;;;14.48;88.83
70304;BME280;57712;48.752;11.348;2022-08-24T01:45:00;97735.59;;;14.43;89.33
70304;BME280;57712;48.752;11.348;2022-08-24T01:47:26;97723.91;;;14.39;89.08
70304;BME280;57712;48.752;11.348;2022-08-24T01:49:54;97728.75;;;14.35;89.63
70304;BME280;57712;48.752;11.348;2022-08-24T01:52:23;97736.88;;;14.26;88.88
70304;BME280;57712;48.752;11.348;2022-08-24T01:54:51;97724.31;;;14.25;88.04
70304;BME280;57712;48.752;11.348;2022-08-24T01:57:18;97725.19;;;14.22;89.44
70304;BME280;57712;48.752;11.348;2022-08-24T01:59:48;97712.31;;;14.19;89.75
70304;BME280;57712;48.752;11.348;2022-08-24T02:02:18;97722.09;;;14.20;89.53
70304;BME280;57712;48.752;11.348;2022-08-24T02:04:47;97720.00;;;14.11;89.26
70304;BME280;57712;48.752;11.348;2022-08-24T02:07:13;97724.72;;;14.11;89.71
70304;BME280;57712;48.752;11.348;2022-08-24T02:09:40;97717.44;;;14.04;89.75
70304;BME280;57712;48.752;11.348;2022-08-24T02:12:07;97711.59;;;14.02;90.42
70304;BME280;57712;48.752;11.348;2022-08-24T02:14:35;97712.69;;;14.05;89.52
70304;BME280;57712;48.752;11.348;2022-08-24T02:17:04;97720.94;;;14.05;89.31
70304;BME280;57712;48.752;11.348;2022-08-24T02:19:31;97718.75;;;14.00;89.85
70304;BME280;57712;48.752;11.348;2022-08-24T02:21:58;97727.53;;;13.95;89.45
70304;BME280;57712;48.752;11.348;2022-08-24T02:24:28;97721.25;;;13.94;90.28
70304;BME280;57712;48.752;11.348;2022-08-24T02:26:56;97727.97;;;13.93;90.34
70304;BME280;57712;48.752;11.348;2022-08-24T02:29:23;97731.59;;;13.90;90.49
70304;BME280;57712;48.752;11.348;2022-08-24T02:31:50;97725.75;;;13.88;90.35
70304;BME280;57712;48.752;11.348;2022-08-24T02:34:16;97722.22;;;13.88;91.95
70304;BME280;57712;48.752;11.348;2022-08-24T02:36:46;97729.06;;;13.96;90.75
70304;BME280;57712;48.752;11.348;2022-08-24T02:39:12;97725.13;;;13.97;93.15
70304;BME280;57712;48.752;11.348;2022-08-24T02:41:39;97730.97;;;13.99;93.01
70304;BME280;57712;48.752;11.348;2022-08-24T02:44:06;97738.47;;;13.98;92.22
70304;BME280;57712;48.752;11.348;2022-08-24T02:46:32;97734.59;;;13.96;92.06
70304;BME280;57712;48.752;11.348;2022-08-24T02:48:59;97740.78;;;14.00;92.22
70304;BME280;57712;48.752;11.348;2022-08-24T02:51:38;97740.78;;;14.00;91.27
70304;BME280;57712;48.752;11.348;2022-08-24T02:54:11;97742.44;;;13.97;91.96
70304;BME280;57712;48.752;11.348;2022-08-24T02:56:38;97738.53;;;13.95;92.26
70304;BME280;57712;48.752;11.348;2022-08-24T02:59:05;97733.91;;;13.92;91.77
70304;BME280;57712;48.752;11.348;2022-08-24T03:01:31;97733.25;;;13.88;92.33
70304;BME280;57712;48.752;11.348;2022-08-24T03:03:58;97725.84;;;13.84;91.57
70304;BME280;57712;48.752;11.348;2022-08-24T03:06:24;97726.19;;;13.86;92.10
70304;BME280;57712;48.752;11.348;2022-08-24T03:08:51;97728.69;;;13.81;93.40
70304;BME280;57712;48.752;11.348;2022-08-24T03:11:22;97728.69;;;13.81;92.58
70304;BME280;57712;48.752;11.348;2022-08-24T03:13:53;97728.38;;;13.79;92.28
70304;BME280;57712;48.752;11.348;2022-08-24T03:16:20;97724.25;;;13.71;92.00
70304;BME280;57712;48.752;11.348;2022-08-24T03:18:47;97730.63;;;13.68;91.83
70304;BME280;57712;48.752;11.348;2022-08-24T03:21:14;97736.22;;;13.64;90.67
70304;BME280;57712;48.752;11.348;2022-08-24T03:23:40;97729.16;;;13.63;90.40
70304;BME280;57712;48.752;11.348;2022-08-24T03:26:07;97725.97;;;13.65;90.93
70304;BME280;57712;48.752;11.348;2022-08-24T03:28:33;97732.47;;;13.58;91.40
70304;BME280;57712;48.752;11.348;2022-08-24T03:31:00;97726.63;;;13.56;91.27
70304;BME280;57712;48.752;11.348;2022-08-24T03:33:27;97730.31;;;13.49;91.56
70304;BME280;57712;48.752;11.348;2022-08-24T03:35:53;97726.34;;;13.50;90.99
70304;BME280;57712;48.752;11.348;2022-08-24T03:38:20;97726.47;;;13.47;91.44
70304;BME280;57712;48.752;11.348;2022-08-24T03:40:47;97728.09;;;13.44;91.05
70304;BME280;57712;48.752;11.348;2022-08-24T03:43:14;97733.00;;;13.37;91.40
70304;BME280;57712;48.752;11.348;2022-08-24T03:46:00;97733.78;;;13.37;92.11
70304;BME280;57712;48.752;11.348;2022-08-24T03:48:29;97729.03;;;13.38;91.91
70304;BME280;57712;48.752;11.348;2022-08-24T03:50:56;97733.44;;;13.35;92.03
70304;BME280;57712;48.752;11.348;2022-08-24T03:53:26;97740.16;;;13.34;92.74
70304;BME280;57712;48.752;11.348;2022-08-24T03:55:52;97751.06;;;13.38;91.59
70304;BME280;57712;48.752;11.348;2022-08-24T03:58:19;97747.25;;;13.32;92.26
70304;BME280;57712;48.752;11.348;2022-08-24T04:00:45;97754.31;;;13.33;92.33
70304;BME280;57712;48.752;11.348;2022-08-24T04:03:12;97748.91;;;13.29;92.13
70304;BME280;57712;48.752;11.348;2022-08-24T04:05:39;97751.66;;;13.29;92.70
70304;BME280;57712;48.752;11.348;2022-08-24T04:08:08;97747.78;;;13.26;92.86
70304;BME280;57712;48.752;11.348;2022-08-24T04:10:34;97758.72;;;13.30;91.94
70304;BME280;57712;48.752;11.348;2022-08-24T04:13:01;97758.47;;;13.24;92.65
70304;BME280;57712;48.752;11.348;2022-08-24T04:15:29;97755.34;;;13.22;91.89
70304;BME280;57712;48.752;11.348;2022-08-24T04:17:57;97755.00;;;13.20;92.87
70304;BME280;57712;48.752;11.348;2022-08-24T04:20:24;97751.06;;;13.21;92.40
70304;BME280;57712;48.752;11.348;2022-08-24T04:22:51;97764.75;;;13.25;91.81
70304;BME280;57712;48.752;11.348;2022-08-24T04:25:19;97767.50;;;13.25;92.20
70304;BME280;57712;48.752;11.348;2022-08-24T04:27:50;97758.88;;;13.23;92.63
70304;BME280;57712;48.752;11.348;2022-08-24T04:30:17;97764.38;;;13.23;92.84
70304;BME280;57712;48.752;11.348;2022-08-24T04:32:43;97765.50;;;13.25;92.51
70304;BME280;57712;48.752;11.348;2022-08-24T04:35:10;97764.75;;;13.25;93.00
70304;BME280;57712;48.752;11.348;2022-08-24T04:37:37;97760.00;;;13.25;93.71
70304;BME280;57712;48.752;11.348;2022-08-24T04:40:04;97758.03;;;13.26;92.87
70304;BME280;57712;48.752;11.348;2022-08-24T04:42:33;97763.00;;;13.31;92.62
70304;BME280;57712;48.752;11.348;2022-08-24T04:45:02;97771.59;;;13.33;92.65
70304;BME280;57712;48.752;11.348;2022-08-24T04:47:29;97760.59;;;13.33;92.70
70304;BME280;57712;48.752;11.348;2022-08-24T04:49:55;97769.13;;;13.39;92.04
70304;BME280;57712;48.752;11.348;2022-08-24T04:52:22;97772.97;;;13.41;92.46
70304;BME280;57712;48.752;11.348;2022-08-24T04:54:49;97775.66;;;13.45;92.16
70304;BME280;57712;48.752;11.348;2022-08-24T04:57:16;97772.72;;;13.52;90.67
70304;BME280;57712;48.752;11.348;2022-08-24T04:59:44;97774.94;;;13.57;91.37
70304;BME280;57712;48.752;11.348;2022-08-24T05:02:10;97773.56;;;13.65;90.88
70304;BME280;57712;48.752;11.348;2022-08-24T05:04:37;97779.41;;;13.67;91.91
70304;BME280;57712;48.752;11.348;2022-08-24T05:07:04;97782.84;;;13.71;91.68
70304;BME280;57712;48.752;11.348;2022-08-24T05:09:31;97783.09;;;13.77;91.71
70304;BME280;57712;48.752;11.348;2022-08-24T05:11:58;97787.63;;;13.83;91.87
70304;BME280;57712;48.752;11.348;2022-08-24T05:14:24;97783.50;;;13.92;91.36
70304;BME280;57712;48.752;11.348;2022-08-24T05:16:54;97784.09;;;13.99;91.44
70304;BME280;57712;48.752;11.348;2022-08-24T05:19:21;97788.59;;;14.06;91.94
70304;BME280;57712;48.752;11.348;2022-08-24T05:21:49;97787.91;;;14.18;92.30
70304;BME280;57712;48.752;11.348;2022-08-24T05:24:16;97792.88;;;14.23;92.19
70304;BME280;57712;48.752;11.348;2022-08-24T05:26:42;97791.78;;;14.33;93.36
70304;BME280;57712;48.752;11.348;2022-08-24T05:29:09;97796.59;;;14.46;92.59
70304;BME280;57712;48.752;11.348;2022-08-24T05:31:36;97797.84;;;14.57;92.26
70304;BME280;57712;48.752;11.348;2022-08-24T05:34:03;97804.94;;;14.71;91.04
70304;BME280;57712;48.752;11.348;2022-08-24T05:36:35;97802.97;;;14.84;91.00
70304;BME280;57712;48.752;11.348;2022-08-24T05:39:06;97801.66;;;15.01;91.26
70304;BME280;57712;48.752;11.348;2022-08-24T05:41:37;97806.72;;;15.16;92.95
70304;BME280;57712;48.752;11.348;2022-08-24T05:44:11;97812.56;;;15.30;92.37
70304;BME280;57712;48.752;11.348;2022-08-24T05:46:38;97815.00;;;15.54;94.19
70304;BME280;57712;48.752;11.348;2022-08-24T05:49:05;97821.63;;;15.69;94.77
70304;BME280;57712;48.752;11.348;2022-08-24T05:51:34;97827.00;;;15.85;95.30
70304;BME280;57712;48.752;11.348;2022-08-24T05:54:01;97820.44;;;16.05;96.27
70304;BME280;57712;48.752;11.348;2022-08-24T05:56:30;97830.84;;;16.23;96.11
70304;BME280;57712;48.752;11.348;2022-08-24T05:58:57;97827.00;;;16.42;95.80
70304;BME280;57712;48.752;11.348;2022-08-24T06:01:25;97837.53;;;16.56;95.52
70304;BME280;57712;48.752;11.348;2022-08-24T06:03:53;97827.22;;;16.69;95.36
70304;BME280;57712;48.752;11.348;2022-08-24T06:06:21;97832.53;;;16.86;93.64
70304;BME280;57712;48.752;11.348;2022-08-24T06:08:53;97831.25;;;16.99;93.40
70304;BME280;57712;48.752;11.348;2022-08-24T06:11:26;97834.19;;;17.05;93.32
70304;BME280;57712;48.752;11.348;2022-08-24T06:13:59;97827.97;;;17.23;92.09
70304;BME280;57712;48.752;11.348;2022-08-24T06:16:27;97825.69;;;17.40;91.77
70304;BME280;57712;48.752;11.348;2022-08-24T06:18:54;97822.97;;;17.49;90.89
70304;BME280;57712;48.752;11.348;2022-08-24T06:21:24;97825.63;;;17.62;90.31
70304;BME280;57712;48.752;11.348;2022-08-24T06:23:54;97820.31;;;17.76;90.88
70304;BME280;57712;48.752;11.348;2022-08-24T06:26:21;97823.84;;;17.86;89.06
70304;BME280;57712;48.752;11.348;2022-08-24T06:29:06;97825.88;;;18.13;87.87
70304;BME280;57712;48.752;11.348;2022-08-24T06:31:36;97825.59;;;18.29;86.68
70304;BME280;57712;48.752;11.348;2022-08-24T06:34:08;97823.41;;;18.42;86.11
70304;BME280;57712;48.752;11.348;2022-08-24T06:36:35;97822.81;;;18.48;85.16
70304;BME280;57712;48.752;11.348;2022-08-24T06:39:02;97820.03;;;18.57;84.46
70304;BME280;57712;48.752;11.348;2022-08-24T06:41:31;97819.09;;;18.78;83.16
70304;BME280;57712;48.752;11.348;2022-08-24T06:43:57;97814.75;;;18.86;83.72
70304;BME280;57712;48.752;11.348;2022-08-24T06:46:24;97820.72;;;18.94;82.08
70304;BME280;57712;48.752;11.348;2022-08-24T06:48:57;97815.31;;;19.09;80.97
70304;BME280;57712;48.752;11.348;2022-08-24T06:51:23;97817.44;;;19.14;81.52
70304;BME280;57712;48.752;11.348;2022-08-24T06:53:50;97831.38;;;19.38;80.47
70304;BME280;57712;48.752;11.348;2022-08-24T06:56:19;97822.22;;;19.46;79.47
70304;BME280;57712;48.752;11.348;2022-08-24T06:58:46;97833.00;;;19.63;79.53
70304;BME280;57712;48.752;11.348;2022-08-24T07:01:19;97837.38;;;19.78;80.42
70304;BME280;57712;48.752;11.348;2022-08-24T07:03:46;97837.25;;;19.97;78.44
70304;BME280;57712;48.752;11.348;2022-08-24T07:06:13;97843.34;;;19.86;78.62
70304;BME280;57712;48.752;11.348;2022-08-24T07:08:41;97845.00;;;20.16;79.52
70304;BME280;57712;48.752;11.348;2022-08-24T07:11:09;97842.03;;;20.20;79.75
70304;BME280;57712;48.752;11.348;2022-08-24T07:13:36;97848.19;;;20.48;78.39
70304;BME280;57712;48.752;11.348;2022-08-24T07:16:03;97849.28;;;20.65;77.35
70304;BME280;57712;48.752;11.348;2022-08-24T07:18:30;97854.91;;;20.56;77.54
70304;BME280;57712;48.752;11.348;2022-08-24T07:20:59;97852.22;;;20.47;74.78
70304;BME280;57712;48.752;11.348;2022-08-24T07:23:29;97855.28;;;20.49;73.62
70304;BME280;57712;48.752;11.348;2022-08-24T07:26:13;97844.94;;;20.64;75.81
70304;BME280;57712;48.752;11.348;2022-08-24T07:28:53;97843.81;;;20.86;73.53
70304;BME280;57712;48.752;11.348;2022-08-24T07:31:19;97845.34;;;20.87;73.46
70304;BME280;57712;48.752;11.348;2022-08-24T07:33:46;97844.16;;;21.23;71.32
70304;BME280;57712;48.752;11.348;2022-08-24T07:36:13;97840.34;;;21.35;71.11
70304;BME280;57712;48.752;11.348;2022-08-24T07:38:48;97843.41;;;21.22;71.27
70304;BME280;57712;48.752;11.348;2022-08-24T07:41:18;97850.50;;;21.23;71.67
70304;BME280;57712;48.752;11.348;2022-08-24T07:44:04;97845.44;;;21.37;70.77
70304;BME280;57712;48.752;11.348;2022-08-24T07:46:31;97839.22;;;21.62;71.41
70304;BME280;57712;48.752;11.348;2022-08-24T07:48:58;97839.66;;;21.75;70.67
70304;BME280;57712;48.752;11.348;2022-08-24T07:51:44;97842.06;;;21.82;69.92
70304;BME280;57712;48.752;11.348;2022-08-24T07:54:13;97848.22;;;22.07;68.74
70304;BME280;57712;48.752;11.348;2022-08-24T07:56:42;97842.91;;;22.29;70.79
70304;BME280;57712;48.752;11.348;2022-08-24T07:59:09;97848.66;;;22.20;67.31
70304;BME280;57712;48.752;11.348;2022-08-24T08:01:39;97841.06;;;22.21;66.23
70304;BME280;57712;48.752;11.348;2022-08-24T08:04:07;97844.47;;;22.30;67.64
70304;BME280;57712;48.752;11.348;2022-08-24T08:06:34;97849.25;;;22.50;65.76
70304;BME280;57712;48.752;11.348;2022-08-24T08:09:00;97847.38;;;22.62;64.77
70304;BME280;57712;48.752;11.348;2022-08-24T08:11:28;97847.06;;;22.60;65.38
70304;BME280;57712;48.752;11.348;2022-08-24T08:13:54;97841.56;;;22.91;65.61
70304;BME280;57712;48.752;11.348;2022-08-24T08:16:21;97840.78;;;22.65;62.88
70304;BME280;57712;48.752;11.348;2022-08-24T08:18:47;97836.44;;;22.84;63.11
70304;BME280;57712;48.752;11.348;2022-08-24T08:21:30;97838.16;;;23.08;66.18
70304;BME280;57712;48.752;11.348;2022-08-24T08:24:16;97831.41;;;23.20;63.19
70304;BME280;57712;48.752;11.348;2022-08-24T08:26:48;97835.28;;;23.28;60.92
70304;BME280;57712;48.752;11.348;2022-08-24T08:29:18;97838.09;;;23.33;62.05
70304;BME280;57712;48.752;11.348;2022-08-24T08:31:45;97835.28;;;23.28;60.47
70304;BME280;57712;48.752;11.348;2022-08-24T08:34:12;97835.38;;;23.39;60.73
70304;BME280;57712;48.752;11.348;2022-08-24T08:36:40;97825.09;;;23.25;63.94
70304;BME280;57712;48.752;11.348;2022-08-24T08:39:09;97832.84;;;23.41;65.57
70304;BME280;57712;48.752;11.348;2022-08-24T08:44:18;97828.25;;;23.38;63.52
70304;BME280;57712;48.752;11.348;2022-08-24T08:47:10;97823.91;;;23.69;62.40
70304;BME280;57712;48.752;11.348;2022-08-24T09:00:30;97838.47;;;23.78;59.56
70304;BME280;57712;48.752;11.348;2022-08-24T09:08:50;97834.53;;;24.07;63.05
70304;BME280;57712;48.752;11.348;2022-08-24T09:14:22;97837.44;;;24.30;59.67
70304;BME280;57712;48.752;11.348;2022-08-24T09:22:27;97837.03;;;24.65;57.78
70304;BME280;57712;48.752;11.348;2022-08-24T09:27:39;97836.53;;;24.77;54.89
70304;BME280;57712;48.752;11.348;2022-08-24T09:35:30;97832.56;;;25.12;56.47
70304;BME280;57712;48.752;11.348;2022-08-24T09:40:42;97830.72;;;24.98;54.70
70304;BME280;57712;48.752;11.348;2022-08-24T09:46:21;97833.81;;;25.17;55.92
70304;BME280;57712;48.752;11.348;2022-08-24T09:48:58;97833.81;;;25.06;55.00
70304;BME280;57712;48.752;11.348;2022-08-24T10:06:10;97830.94;;;25.89;54.17
70304;BME280;57712;48.752;11.348;2022-08-24T10:09:18;97818.91;;;26.00;50.14
70304;BME280;57712;48.752;11.348;2022-08-24T10:11:59;97828.94;;;25.73;51.85
70304;BME280;57712;48.752;11.348;2022-08-24T10:17:28;97823.53;;;25.92;50.74
70304;BME280;57712;48.752;11.348;2022-08-24T10:20:23;97807.94;;;25.97;49.29
70304;BME280;57712;48.752;11.348;2022-08-24T10:25:36;97822.00;;;25.97;50.71
70304;BME280;57712;48.752;11.348;2022-08-24T10:28:35;97809.44;;;26.09;51.03
70304;BME280;57712;48.752;11.348;2022-08-24T10:31:32;97809.31;;;25.51;52.55
70304;BME280;57712;48.752;11.348;2022-08-24T10:54:44;97797.22;;;26.94;47.77
70304;BME280;57712;48.752;11.348;2022-08-24T10:57:38;97785.22;;;27.24;49.56
70304;BME280;57712;48.752;11.348;2022-08-24T11:00:14;97793.28;;;27.39;49.67
70304;BME280;57712;48.752;11.348;2022-08-24T11:02:50;97791.47;;;27.41;47.53
70304;BME280;57712;48.752;11.348;2022-08-24T11:05:41;97796.09;;;26.73;47.61
70304;BME280;57712;48.752;11.348;2022-08-24T11:08:16;97788.53;;;26.92;48.22
70304;BME280;57712;48.752;11.348;2022-08-24T11:10:43;97801.53;;;26.60;49.72
70304;BME280;57712;48.752;11.348;2022-08-24T11:13:25;97797.63;;;26.27;47.99
70304;BME280;57712;48.752;11.348;2022-08-24T11:15:56;97797.00;;;26.45;47.73
70304;BME280;57712;48.752;11.348;2022-08-24T11:18:23;97797.91;;;26.12;48.76
70304;BME280;57712;48.752;11.348;2022-08-24T11:20:53;97795.22;;;25.84;50.87
70304;BME280;57712;48.752;11.348;2022-08-24T11:23:25;97809.56;;;25.64;51.07
70304;BME280;57712;48.752;11.348;2022-08-24T11:26:11;97794.72;;;26.44;47.89
70304;BME280;57712;48.752;11.348;2022-08-24T11:28:52;97790.06;;;27.53;47.90
70304;BME280;57712;48.752;11.348;2022-08-24T11:31:32;97790.06;;;28.21;46.71
70304;BME280;57712;48.752;11.348;2022-08-24T11:34:15;97790.41;;;28.55;44.12
70304;BME280;57712;48.752;11.348;2022-08-24T11:36:42;97787.47;;;28.04;46.56
70304;BME280;57712;48.752;11.348;2022-08-24T11:44:38;97783.28;;;28.11;43.71
70304;BME280;57712;48.752;11.348;2022-08-24T11:50:02;97789.91;;;29.53;43.68
70304;BME280;57712;48.752;11.348;2022-08-24T11:52:58;97782.66;;;29.71;43.34
70304;BME280;57712;48.752;11.348;2022-08-24T11:55:48;97782.38;;;28.78;41.87
70304;BME280;57712;48.752;11.348;2022-08-24T11:59:11;97779.19;;;29.32;40.05
70304;BME280;57712;48.752;11.348;2022-08-24T12:01:16;97788.16;;;30.29;41.96
70304;BME280;57712;48.752;11.348;2022-08-24T12:04:02;97782.63;;;29.97;42.53
70304;BME280;57712;48.752;11.348;2022-08-24T12:14:51;97776.81;;;29.37;43.04
70304;BME280;57712;48.752;11.348;2022-08-24T12:17:32;97778.94;;;30.15;41.75
70304;BME280;57712;48.752;11.348;2022-08-24T12:22:40;97775.34;;;30.15;39.90
70304;BME280;57712;48.752;11.348;2022-08-24T12:25:08;97767.09;;;30.04;39.27
70304;BME280;57712;48.752;11.348;2022-08-24T12:27:56;97765.75;;;30.31;39.11
70304;BME280;57712;48.752;11.348;2022-08-24T12:30:23;97763.72;;;29.66;39.79
70304;BME280;57712;48.752;11.348;2022-08-24T12:33:00;97770.19;;;29.34;40.82
70304;BME280;57712;48.752;11.348;2022-08-24T12:35:34;97768.16;;;30.27;41.80
70304;BME280;57712;48.752;11.348;2022-08-24T12:40:56;97767.09;;;29.64;38.68
70304;BME280;57712;48.752;11.348;2022-08-24T12:43:35;97758.94;;;29.02;41.06
70304;BME280;57712;48.752;11.348;2022-08-24T12:46:04;97752.63;;;28.96;42.13
70304;BME280;57712;48.752;11.348;2022-08-24T12:54:27;97753.31;;;28.83;40.05
70304;BME280;57712;48.752;11.348;2022-08-24T12:59:42;97751.44;;;29.76;38.52
70304;BME280;57712;48.752;11.348;2022-08-24T13:04:56;97745.19;;;28.80;40.87
70304;BME280;57712;48.752;11.348;2022-08-24T13:25:57;97736.22;;;28.62;40.19
70304;BME280;57712;48.752;11.348;2022-08-24T13:31:10;97733.78;;;28.53;41.71
70304;BME280;57712;48.752;11.348;2022-08-24T13:39:11;97733.97;;;28.93;43.55
70304;BME280;57712;48.752;11.348;2022-08-24T13:45:11;97729.50;;;27.90;42.43
70304;BME280;57712;48.752;11.348;2022-08-24T14:06:56;97713.72;;;27.38;43.45
70304;BME280;57712;48.752;11.348;2022-08-24T14:09:35;97723.34;;;27.24;43.37
70304;BME280;57712;48.752;11.348;2022-08-24T14:38:11;97710.06;;;27.19;47.29
70304;BME280;57712;48.752;11.348;2022-08-24T14:41:00;97708.28;;;26.61;46.33
70304;BME280;57712;48.752;11.348;2022-08-24T14:46:43;97717.06;;;26.46;46.52
70304;BME280;57712;48.752;11.348;2022-08-24T14:55:05;97703.78;;;26.00;48.26
70304;BME280;57712;48.752;11.348;2022-08-24T15:06:54;97697.72;;;26.37;47.60
70304;BME280;57712;48.752;11.348;2022-08-24T15:09:17;97692.25;;;26.51;47.96
70304;BME280;57712;48.752;11.348;2022-08-24T15:11:55;97689.59;;;26.94;48.13
70304;BME280;57712;48.752;11.348;2022-08-24T15:14:45;97676.63;;;26.85;48.11
70304;BME280;57712;48.752;11.348;2022-08-24T15:17:18;97679.00;;;26.75;47.87
70304;BME280;57712;48.752;11.348;2022-08-24T15:25:03;97670.53;;;27.11;46.46
70304;BME280;57712;48.752;11.348;2022-08-24T15:27:40;97667.53;;;27.52;46.50
70304;BME280;57712;48.752;11.348;2022-08-24T15:30:32;97671.38;;;27.49;47.76
70304;BME280;57712;48.752;11.348;2022-08-24T15:33:19;97679.13;;;27.43;45.69
70304;BME280;57712;48.752;11.348;2022-08-24T15:35:48;97678.13;;;27.16;45.38
70304;BME280;57712;48.752;11.348;2022-08-24T15:38:30;97679.56;;;26.98;46.05
70304;BME280;57712;48.752;11.348;2022-08-24T15:41:20;97675.06;;;26.90;47.09
70304;BME280;57712;48.752;11.348;2022-08-24T15:46:38;97683.59;;;26.49;46.86
70304;BME280;57712;48.752;11.348;2022-08-24T15:49:13;97673.59;;;26.53;46.74
70304;BME280;57712;48.752;11.348;2022-08-24T15:57:09;97689.75;;;26.00;46.70
70304;BME280;57712;48.752;11.348;2022-08-24T16:05:00;97687.22;;;25.97;48.00
70304;BME280;57712;48.752;11.348;2022-08-24T16:10:38;97686.47;;;25.90;48.52
70304;BME280;57712;48.752;11.348;2022-08-24T16:16:01;97687.53;;;25.87;49.07
70304;BME280;57712;48.752;11.348;2022-08-24T16:21:33;97695.03;;;25.57;49.37
70304;BME280;57712;48.752;11.348;2022-08-24T16:29:03;97688.66;;;25.51;51.27
70304;BME280;57712;48.752;11.348;2022-08-24T16:31:43;97691.00;;;25.41;51.22
70304;BME280;57712;48.752;11.348;2022-08-24T16:34:22;97688.22;;;25.36;51.46
70304;BME280;57712;48.752;11.348;2022-08-24T16:36:54;97687.66;;;25.43;51.12
70304;BME280;57712;48.752;11.348;2022-08-24T16:39:21;97692.78;;;25.44;50.57
70304;BME280;57712;48.752;11.348;2022-08-24T16:41:49;97692.50;;;25.48;50.72
70304;BME280;57712;48.752;11.348;2022-08-24T16:44:17;97687.66;;;25.43;50.86
70304;BME280;57712;48.752;11.348;2022-08-24T16:46:43;97694.25;;;25.56;50.75
70304;BME280;57712;48.752;11.348;2022-08-24T16:49:13;97692.97;;;25.57;51.12
70304;BME280;57712;48.752;11.348;2022-08-24T16:51:40;97698.06;;;25.65;49.83
70304;BME280;57712;48.752;11.348;2022-08-24T16:54:10;97681.00;;;25.57;50.51
70304;BME280;57712;48.752;11.348;2022-08-24T16:56:37;97685.28;;;25.63;49.94
70304;BME280;57712;48.752;11.348;2022-08-24T16:59:04;97688.38;;;25.60;50.19
70304;BME280;57712;48.752;11.348;2022-08-24T17:01:32;97680.19;;;25.68;51.59
70304;BME280;57712;48.752;11.348;2022-08-24T17:03:58;97682.31;;;25.45;51.34
70304;BME280;57712;48.752;11.348;2022-08-24T17:06:25;97692.00;;;25.49;51.67
70304;BME280;57712;48.752;11.348;2022-08-24T17:08:52;97688.66;;;25.51;51.50
70304;BME280;57712;48.752;11.348;2022-08-24T17:11:18;97690.94;;;25.52;52.21
70304;BME280;57712;48.752;11.348;2022-08-24T17:13:45;97688.66;;;25.51;51.75